createdAt,value
2019-05-06T00:00:00.464Z,4.07
2019-05-06T00:02:28.339Z,4.63
2019-05-06T00:04:54.730Z,5.63
2019-05-06T00:07:20.995Z,5.07
2019-05-06T00:09:47.411Z,4.37
2019-05-06T00:12:14.972Z,4.53
2019-05-06T00:14:43.175Z,4.50
2019-05-06T00:17:09.735Z,6.47
2019-05-06T00:19:36.530Z,6.17
2019-05-06T00:22:04.705Z,6.23
2019-05-06T00:24:34.775Z,7.83
2019-05-06T00:27:04.733Z,5.53
2019-05-06T00:29:31.365Z,5.30
2019-05-06T00:31:58.019Z,3.33
2019-05-06T00:34:24.663Z,4.00
2019-05-06T00:36:51.199Z,3.67
2019-05-06T00:39:25.821Z,4.43
2019-05-06T00:42:00.255Z,3.17
2019-05-06T00:44:26.564Z,6.67
2019-05-06T00:46:54.589Z,4.63
2019-05-06T00:49:21.019Z,5.37
2019-05-06T00:51:47.426Z,5.43
2019-05-06T00:54:21.679Z,4.07
2019-05-06T00:56:48.072Z,6.53
2019-05-06T00:59:14.802Z,3.77
2019-05-06T01:01:43.381Z,5.30
2019-05-06T01:04:09.464Z,4.17
2019-05-06T01:06:36.111Z,7.00
2019-05-06T01:09:06.909Z,3.00
2019-05-06T01:11:35.324Z,6.20
2019-05-06T01:14:06.334Z,4.33
2019-05-06T01:16:34.476Z,3.17
2019-05-06T01:19:00.799Z,3.97
2019-05-06T01:21:27.306Z,4.43
2019-05-06T01:23:54.510Z,3.97
2019-05-06T01:26:21.437Z,4.47
2019-05-06T01:28:47.803Z,3.37
2019-05-06T01:31:14.407Z,5.13
2019-05-06T01:33:40.788Z,3.23
2019-05-06T01:36:07.199Z,4.73
2019-05-06T01:39:13.763Z,4.53
2019-05-06T01:41:41.875Z,3.90
2019-05-06T01:44:08.272Z,4.97
2019-05-06T01:46:34.998Z,4.40
2019-05-06T01:49:01.399Z,2.80
2019-05-06T01:51:27.769Z,2.37
2019-05-06T01:53:54.625Z,4.30
2019-05-06T01:56:21.370Z,3.77
2019-05-06T01:58:47.657Z,3.40
2019-05-06T02:01:14.872Z,2.97
2019-05-06T02:03:44.211Z,3.13
2019-05-06T02:06:11.275Z,4.13
2019-05-06T02:08:37.907Z,6.00
2019-05-06T02:11:04.461Z,5.63
2019-05-06T02:13:31.289Z,4.07
2019-05-06T02:15:57.930Z,3.43
2019-05-06T02:18:24.394Z,2.50
2019-05-06T02:20:53.810Z,5.43
2019-05-06T02:23:24.083Z,5.27
2019-05-06T02:25:54.009Z,3.70
2019-05-06T02:28:20.520Z,5.57
2019-05-06T02:30:57.844Z,3.90
2019-05-06T02:33:35.377Z,3.13
2019-05-06T02:36:14.682Z,3.63
2019-05-06T02:38:48.066Z,4.80
2019-05-06T02:41:08.665Z,3.87
2019-05-06T02:43:35.312Z,4.57
2019-05-06T02:46:04.213Z,3.60
2019-05-06T02:48:43.277Z,4.63
2019-05-06T02:51:13.357Z,3.13
2019-05-06T02:53:42.748Z,4.30
2019-05-06T02:56:08.316Z,4.77
2019-05-06T02:58:35.803Z,3.93
2019-05-06T03:01:03.682Z,4.60
2019-05-06T03:03:33.347Z,3.13
2019-05-06T03:05:58.961Z,5.03
2019-05-06T03:08:25.630Z,5.17
2019-05-06T03:10:53.465Z,6.07
2019-05-06T03:13:23.343Z,3.53
2019-05-06T03:15:48.442Z,4.03
2019-05-06T03:18:15.253Z,3.20
2019-05-06T03:20:54.295Z,4.37
2019-05-06T03:23:39.254Z,4.20
2019-05-06T03:26:06.527Z,4.53
2019-05-06T03:28:33.625Z,2.90
2019-05-06T03:31:06.002Z,4.27
2019-05-06T03:33:46.840Z,4.07
2019-05-06T03:36:07.152Z,6.17
2019-05-06T03:38:25.331Z,4.47
2019-05-06T03:40:53.732Z,4.23
2019-05-06T03:43:23.041Z,5.50
2019-05-06T03:46:04.265Z,5.37
2019-05-06T03:48:44.892Z,4.50
2019-05-06T03:51:13.485Z,5.57
2019-05-06T03:53:43.158Z,5.57
2019-05-06T03:56:08.576Z,4.53
2019-05-06T03:58:35.463Z,5.07
2019-05-06T04:01:03.753Z,4.67
2019-05-06T04:03:43.875Z,4.03
2019-05-06T04:05:59.418Z,4.10
2019-05-06T04:08:26.584Z,5.03
2019-05-06T04:10:53.992Z,5.30
2019-05-06T04:13:23.141Z,5.47
2019-05-06T04:15:53.796Z,4.07
2019-05-06T04:18:23.923Z,5.30
2019-05-06T04:21:09.120Z,8.13
2019-05-06T04:23:37.839Z,4.57
2019-05-06T04:26:06.803Z,3.40
2019-05-06T04:28:35.317Z,3.57
2019-05-06T04:31:02.700Z,6.17
2019-05-06T04:33:29.717Z,5.20
2019-05-06T04:35:56.182Z,4.00
2019-05-06T04:38:23.482Z,3.60
2019-05-06T04:40:53.512Z,4.63
2019-05-06T04:43:19.051Z,5.33
2019-05-06T04:45:45.323Z,4.70
2019-05-06T04:48:14.236Z,5.00
2019-05-06T04:50:44.007Z,4.57
2019-05-06T04:53:09.523Z,5.40
2019-05-06T04:55:36.106Z,3.37
2019-05-06T04:58:04.203Z,5.67
2019-05-06T05:00:37.840Z,5.03
2019-05-06T05:03:05.407Z,6.93
2019-05-06T05:05:33.273Z,5.40
2019-05-06T05:08:02.294Z,5.00
2019-05-06T05:10:35.973Z,4.33
2019-05-06T05:13:12.545Z,5.87
2019-05-06T05:15:46.998Z,5.07
2019-05-06T05:18:15.391Z,4.93
2019-05-06T05:20:46.584Z,4.83
2019-05-06T05:23:11.880Z,5.63
2019-05-06T05:25:38.699Z,5.03
2019-05-06T05:28:05.269Z,6.13
2019-05-06T05:30:32.809Z,6.73
2019-05-06T05:32:59.383Z,5.70
2019-05-06T05:35:25.755Z,9.20
2019-05-06T05:37:52.964Z,7.67
2019-05-06T05:40:19.651Z,4.53
2019-05-06T05:42:56.931Z,4.83
2019-05-06T05:45:23.307Z,4.73
2019-05-06T05:47:52.268Z,5.60
2019-05-06T05:50:22.783Z,8.17
2019-05-06T05:52:49.093Z,5.07
2019-05-06T05:55:15.594Z,5.10
2019-05-06T05:57:43.307Z,5.20
2019-05-06T06:00:10.255Z,5.90
2019-05-06T06:02:36.885Z,4.50
2019-05-06T06:05:05.369Z,5.47
2019-05-06T06:07:32.863Z,5.73
2019-05-06T06:10:19.479Z,7.47
2019-05-06T06:12:45.882Z,4.57
2019-05-06T06:15:14.962Z,5.43
2019-05-06T06:17:43.283Z,6.47
2019-05-06T06:20:29.848Z,6.03
2019-05-06T06:22:58.195Z,7.47
2019-05-06T06:25:24.883Z,7.83
2019-05-06T06:27:52.317Z,6.70
2019-05-06T06:30:22.158Z,8.27
2019-05-06T06:32:49.286Z,6.10
2019-05-06T06:35:34.396Z,6.47
2019-05-06T06:38:14.659Z,8.40
2019-05-06T06:40:42.508Z,6.17
2019-05-06T06:43:12.423Z,6.93
2019-05-06T06:45:38.839Z,7.40
2019-05-06T06:48:05.304Z,8.20
2019-05-06T06:50:32.945Z,9.43
2019-05-06T06:53:02.866Z,7.77
2019-05-06T06:55:29.290Z,6.93
2019-05-06T06:58:04.101Z,7.40
2019-05-06T07:00:38.448Z,7.00
2019-05-06T07:03:07.107Z,7.07
2019-05-06T07:05:44.662Z,7.53
2019-05-06T07:08:12.711Z,7.63
2019-05-06T07:10:43.043Z,10.33
2019-05-06T07:13:14.893Z,9.00
2019-05-06T07:15:42.624Z,9.73
2019-05-06T07:18:09.202Z,8.13
2019-05-06T07:20:37.479Z,9.17
2019-05-06T07:23:22.352Z,10.43
2019-05-06T07:25:48.818Z,11.17
2019-05-06T07:28:15.122Z,10.03
2019-05-06T07:30:41.963Z,10.53
2019-05-06T07:33:08.479Z,7.90
2019-05-06T07:35:40.205Z,7.77
2019-05-06T07:38:03.191Z,9.97
2019-05-06T07:40:29.797Z,10.10
2019-05-06T07:42:58.378Z,7.47
2019-05-06T07:45:26.659Z,9.33
2019-05-06T07:47:54.902Z,8.13
2019-05-06T07:50:22.365Z,9.47
2019-05-06T07:53:07.454Z,8.60
2019-05-06T07:55:35.478Z,8.57
2019-05-06T07:58:03.010Z,9.53
2019-05-06T08:00:32.698Z,6.07
2019-05-06T08:02:59.037Z,7.30
2019-05-06T08:05:25.666Z,8.40
2019-05-06T08:07:55.041Z,7.60
2019-05-06T08:10:22.017Z,9.17
2019-05-06T08:12:48.419Z,10.20
2019-05-06T08:15:15.115Z,6.67
2019-05-06T08:17:42.305Z,6.07
2019-05-06T08:20:09.496Z,8.67
2019-05-06T08:22:37.795Z,7.33
2019-05-06T08:25:04.384Z,8.17
2019-05-06T08:27:32.873Z,8.10
2019-05-06T08:29:59.515Z,7.77
2019-05-06T08:32:26.563Z,6.63
2019-05-06T08:34:53.151Z,8.20
2019-05-06T08:37:22.766Z,10.33
2019-05-06T08:39:49.439Z,6.73
2019-05-06T08:42:15.701Z,7.33
2019-05-06T08:44:42.726Z,6.17
2019-05-06T08:47:09.571Z,6.13
2019-05-06T08:49:49.274Z,5.23
2019-05-06T08:52:16.679Z,5.07
2019-05-06T08:54:44.918Z,6.77
2019-05-06T08:57:11.909Z,5.97
2019-05-06T08:59:38.402Z,6.37
2019-05-06T09:02:05.393Z,4.63
2019-05-06T09:04:32.220Z,6.27
2019-05-06T09:06:59.802Z,7.73
2019-05-06T09:09:27.310Z,5.03
2019-05-06T09:11:53.975Z,6.10
2019-05-06T09:14:22.931Z,7.73
2019-05-06T09:16:51.381Z,5.13
2019-05-06T09:19:17.698Z,3.40
2019-05-06T09:21:46.334Z,7.87
2019-05-06T09:24:12.782Z,5.57
2019-05-06T09:26:43.135Z,6.03
2019-05-06T09:29:12.841Z,5.97
2019-05-06T09:31:42.742Z,6.67
2019-05-06T09:34:23.431Z,4.97
2019-05-06T09:37:08.157Z,4.70
2019-05-06T09:39:34.770Z,5.17
2019-05-06T09:42:02.217Z,4.50
2019-05-06T09:44:28.684Z,6.40
2019-05-06T09:46:55.238Z,4.63
2019-05-06T09:49:23.412Z,5.53
2019-05-06T09:51:49.806Z,4.20
2019-05-06T09:54:23.361Z,4.73
2019-05-06T09:56:53.233Z,4.20
2019-05-06T09:59:19.412Z,4.97
2019-05-06T10:01:45.707Z,8.43
2019-05-06T10:04:13.091Z,5.33
2019-05-06T10:06:55.466Z,8.77
2019-05-06T10:09:09.749Z,6.50
2019-05-06T10:11:36.522Z,5.43
2019-05-06T10:14:03.595Z,8.13
2019-05-06T10:16:32.389Z,4.20
2019-05-06T10:18:58.592Z,5.20
2019-05-06T10:21:25.183Z,7.20
2019-05-06T10:23:52.873Z,4.70
2019-05-06T10:26:19.495Z,5.67
2019-05-06T10:28:52.285Z,6.77
2019-05-06T10:31:18.903Z,5.60
2019-05-06T10:34:03.927Z,3.87
2019-05-06T10:36:37.002Z,4.40
2019-05-06T10:39:09.263Z,6.70
2019-05-06T10:41:38.835Z,6.67
2019-05-06T10:44:43.038Z,5.47
2019-05-06T10:47:09.409Z,6.67
2019-05-06T10:49:35.808Z,5.70
2019-05-06T10:52:09.744Z,4.20
2019-05-06T10:54:36.224Z,5.33
2019-05-06T10:57:22.471Z,4.77
2019-05-06T10:59:49.191Z,4.80
2019-05-06T11:02:35.634Z,3.87
2019-05-06T11:05:03.540Z,8.10
2019-05-06T11:07:34.521Z,5.20
2019-05-06T11:09:58.415Z,4.00
2019-05-06T11:12:25.119Z,4.63
2019-05-06T11:14:53.199Z,6.07
2019-05-06T11:17:20.068Z,6.50
2019-05-06T11:19:46.618Z,4.13
2019-05-06T11:22:12.993Z,5.67
2019-05-06T11:24:39.356Z,4.90
2019-05-06T11:27:07.309Z,4.47
2019-05-06T11:29:38.287Z,4.07
2019-05-06T11:32:06.931Z,5.70
2019-05-06T11:34:42.105Z,4.40
2019-05-06T11:37:19.355Z,4.13
2019-05-06T11:39:45.826Z,5.00
2019-05-06T11:42:24.933Z,4.87
2019-05-06T11:44:40.291Z,6.20
2019-05-06T11:47:07.030Z,5.47
2019-05-06T11:49:33.406Z,4.10
2019-05-06T11:52:02.194Z,3.70
2019-05-06T11:54:29.435Z,4.00
2019-05-06T11:56:58.346Z,4.60
2019-05-06T11:59:24.448Z,3.83
2019-05-06T12:01:53.376Z,3.20
2019-05-06T12:04:22.308Z,3.77
2019-05-06T12:06:48.540Z,3.23
2019-05-06T12:09:17.094Z,4.63
2019-05-06T12:11:43.435Z,4.70
2019-05-06T12:14:12.377Z,4.90
2019-05-06T12:16:38.809Z,4.43
2019-05-06T12:19:05.400Z,3.77
2019-05-06T12:21:32.986Z,5.73
2019-05-06T12:23:59.915Z,4.57
2019-05-06T12:26:26.451Z,4.23
2019-05-06T12:28:53.326Z,3.63
2019-05-06T12:31:20.186Z,3.93
2019-05-06T12:33:48.367Z,4.87
2019-05-06T12:36:19.673Z,3.13
2019-05-06T12:39:06.571Z,4.70
2019-05-06T12:41:35.285Z,4.00
2019-05-06T12:44:03.264Z,4.97
2019-05-06T12:46:33.217Z,5.77
2019-05-06T12:48:59.750Z,4.53
2019-05-06T12:51:26.151Z,3.87
2019-05-06T12:53:53.032Z,5.60
2019-05-06T12:56:21.047Z,3.93
2019-05-06T12:58:47.776Z,5.23
2019-05-06T13:01:16.303Z,6.43
2019-05-06T13:03:43.365Z,4.80
2019-05-06T13:06:12.727Z,6.90
2019-05-06T13:08:54.111Z,4.30
2019-05-06T13:11:29.391Z,4.77
2019-05-06T13:14:00.432Z,3.80
2019-05-06T13:16:24.145Z,5.57
2019-05-06T13:18:52.534Z,5.37
2019-05-06T13:21:18.956Z,7.07
2019-05-06T13:23:50.136Z,4.27
2019-05-06T13:26:16.943Z,5.57
2019-05-06T13:28:45.239Z,5.97
2019-05-06T13:31:20.422Z,6.73
2019-05-06T13:33:54.050Z,7.50
2019-05-06T13:36:22.591Z,6.27
2019-05-06T13:38:48.975Z,8.13
2019-05-06T13:41:15.735Z,6.33
2019-05-06T13:43:54.117Z,6.13
2019-05-06T13:46:23.460Z,6.00
2019-05-06T13:48:57.479Z,5.77
2019-05-06T13:51:28.110Z,5.13
2019-05-06T13:53:54.506Z,7.03
2019-05-06T13:56:20.879Z,5.47
2019-05-06T13:58:47.360Z,7.77
2019-05-06T14:01:15.961Z,7.03
2019-05-06T14:03:42.972Z,7.30
2019-05-06T14:06:09.527Z,10.83
2019-05-06T14:08:35.900Z,6.43
2019-05-06T14:11:03.056Z,4.80
2019-05-06T14:13:29.466Z,7.10
2019-05-06T14:15:55.779Z,6.93
2019-05-06T14:18:22.547Z,6.27
2019-05-06T14:20:49.057Z,7.53
2019-05-06T14:23:15.794Z,7.07
2019-05-06T14:25:44.016Z,7.20
2019-05-06T14:28:28.827Z,7.13
2019-05-06T14:30:57.028Z,6.10
2019-05-06T14:33:23.813Z,7.83
2019-05-06T14:35:52.466Z,7.30
2019-05-06T14:38:38.573Z,6.47
2019-05-06T14:41:08.042Z,6.23
2019-05-06T14:43:35.190Z,7.17
2019-05-06T14:46:02.083Z,6.57
2019-05-06T14:48:28.455Z,5.00
2019-05-06T14:50:57.212Z,8.13
2019-05-06T14:53:23.942Z,6.70
2019-05-06T14:55:52.318Z,6.50
2019-05-06T14:58:19.015Z,6.50
2019-05-06T15:00:45.391Z,8.77
2019-05-06T15:03:12.925Z,6.63
2019-05-06T15:05:42.754Z,6.90
2019-05-06T15:08:09.359Z,8.73
2019-05-06T15:10:36.814Z,8.20
2019-05-06T15:13:03.140Z,6.10
2019-05-06T15:15:29.411Z,7.40
2019-05-06T15:17:55.847Z,6.00
2019-05-06T15:20:22.705Z,4.73
2019-05-06T15:22:49.227Z,7.47
2019-05-06T15:25:15.590Z,7.17
2019-05-06T15:27:42.682Z,8.10
2019-05-06T15:30:26.446Z,7.00
2019-05-06T15:32:53.014Z,8.17
2019-05-06T15:35:30.274Z,6.33
2019-05-06T15:37:58.462Z,6.87
2019-05-06T15:40:32.439Z,8.00
2019-05-06T15:42:53.539Z,8.37
2019-05-06T15:45:21.895Z,8.17
2019-05-06T15:47:48.259Z,5.23
2019-05-06T15:50:14.900Z,6.00
2019-05-06T15:52:43.570Z,8.80
2019-05-06T15:55:10.119Z,7.67
2019-05-06T15:57:36.519Z,6.30
2019-05-06T16:00:04.946Z,6.03
2019-05-06T16:02:33.469Z,6.33
2019-05-06T16:04:59.648Z,6.63
2019-05-06T16:07:26.338Z,5.87
2019-05-06T16:09:55.126Z,6.90
2019-05-06T16:12:22.072Z,7.80
2019-05-06T16:14:48.590Z,6.97
2019-05-06T16:17:15.148Z,5.60
2019-05-06T16:19:42.702Z,5.27
2019-05-06T16:22:09.444Z,6.63
2019-05-06T16:24:37.952Z,5.97
2019-05-06T16:27:04.574Z,6.03
2019-05-06T16:29:35.146Z,5.83
2019-05-06T16:32:02.854Z,6.27
2019-05-06T16:34:29.135Z,5.50
2019-05-06T16:36:55.687Z,5.37
2019-05-06T16:39:23.016Z,7.50
2019-05-06T16:41:49.458Z,4.97
2019-05-06T16:44:16.070Z,7.63
2019-05-06T16:46:42.765Z,7.10
2019-05-06T16:49:09.370Z,5.10
2019-05-06T16:51:36.187Z,5.93
2019-05-06T16:54:02.858Z,6.40
2019-05-06T16:56:33.248Z,6.43
2019-05-06T16:59:03.010Z,13.90
2019-05-06T17:01:29.851Z,5.63
2019-05-06T17:04:02.999Z,7.93
2019-05-06T17:06:32.684Z,6.43
2019-05-06T17:08:59.147Z,4.37
2019-05-06T17:11:30.315Z,4.63
2019-05-06T17:13:54.184Z,5.47
2019-05-06T17:16:22.090Z,5.70
2019-05-06T17:18:48.758Z,5.60
2019-05-06T17:21:15.158Z,8.40
2019-05-06T17:23:42.972Z,5.53
2019-05-06T17:26:09.907Z,4.70
2019-05-06T17:28:43.902Z,5.80
2019-05-06T17:31:29.055Z,6.07
2019-05-06T17:34:06.235Z,7.10
2019-05-06T17:36:34.858Z,7.27
2019-05-06T17:39:02.657Z,8.63
2019-05-06T17:41:42.373Z,6.90
2019-05-06T17:43:57.871Z,7.37
2019-05-06T17:46:43.644Z,5.57
2019-05-06T17:49:12.889Z,7.97
2019-05-06T17:51:42.548Z,7.50
2019-05-06T17:54:09.109Z,6.20
2019-05-06T17:56:35.389Z,7.60
2019-05-06T17:59:03.197Z,5.37
2019-05-06T18:01:34.842Z,7.30
2019-05-06T18:04:02.210Z,5.73
2019-05-06T18:06:29.103Z,6.43
2019-05-06T18:08:55.477Z,7.03
2019-05-06T18:11:22.451Z,6.73
2019-05-06T18:13:49.104Z,5.03
2019-05-06T18:16:15.593Z,4.77
2019-05-06T18:18:41.866Z,5.47
2019-05-06T18:21:08.551Z,7.77
2019-05-06T18:23:34.907Z,6.20
2019-05-06T18:26:03.154Z,5.83
2019-05-06T18:28:29.611Z,5.57
2019-05-06T18:30:57.468Z,6.17
2019-05-06T18:33:23.754Z,5.53
2019-05-06T18:35:50.374Z,6.17
2019-05-06T18:38:16.679Z,6.33
2019-05-06T18:40:43.203Z,7.77
2019-05-06T18:43:09.507Z,6.30
2019-05-06T18:45:36.163Z,9.07
2019-05-06T18:48:02.911Z,6.47
2019-05-06T18:50:29.647Z,6.00
2019-05-06T18:52:56.051Z,6.97
2019-05-06T18:55:23.660Z,8.73
2019-05-06T18:57:52.637Z,5.03
2019-05-06T19:00:18.633Z,6.67
2019-05-06T19:02:45.219Z,7.27
2019-05-06T19:05:16.443Z,6.70
2019-05-06T19:07:43.454Z,7.30
2019-05-06T19:10:13.435Z,5.07
2019-05-06T19:12:41.578Z,5.67
2019-05-06T19:15:08.935Z,6.23
2019-05-06T19:17:35.680Z,8.23
2019-05-06T19:20:03.654Z,7.90
2019-05-06T19:22:32.292Z,6.37
2019-05-06T19:24:58.582Z,7.33
2019-05-06T19:27:25.084Z,7.50
2019-05-06T19:29:54.556Z,5.87
2019-05-06T19:32:22.518Z,7.30
2019-05-06T19:34:49.158Z,7.07
2019-05-06T19:37:15.447Z,6.50
2019-05-06T19:39:43.045Z,6.30
2019-05-06T19:42:09.833Z,6.50
2019-05-06T19:44:36.474Z,7.97
2019-05-06T19:47:22.613Z,6.70
2019-05-06T19:49:49.624Z,9.93
2019-05-06T19:52:16.095Z,8.60
2019-05-06T19:54:42.566Z,13.13
2019-05-06T19:57:11.929Z,9.37
2019-05-06T19:59:38.219Z,9.23
2019-05-06T20:02:05.259Z,10.07
2019-05-06T20:04:33.307Z,8.37
2019-05-06T20:07:18.756Z,7.83
2019-05-06T20:09:53.053Z,9.87
2019-05-06T20:12:24.247Z,8.50
2019-05-06T20:14:52.374Z,9.03
2019-05-06T20:17:18.811Z,6.43
2019-05-06T20:19:45.079Z,8.30
2019-05-06T20:22:13.009Z,8.93
2019-05-06T20:24:39.447Z,6.80
2019-05-06T20:27:05.747Z,6.70
2019-05-06T20:29:33.014Z,9.30
2019-05-06T20:32:00.348Z,7.10
2019-05-06T20:34:26.606Z,10.00
2019-05-06T20:36:53.049Z,6.47
2019-05-06T20:39:19.919Z,6.80
2019-05-06T20:41:46.318Z,8.00
2019-05-06T20:44:12.588Z,6.43
2019-05-06T20:46:39.159Z,7.30
2019-05-06T20:49:05.546Z,6.23
2019-05-06T20:51:32.838Z,6.77
2019-05-06T20:53:59.790Z,8.83
2019-05-06T20:56:26.260Z,6.10
2019-05-06T20:58:52.982Z,5.00
2019-05-06T21:01:21.764Z,6.23
2019-05-06T21:03:47.822Z,6.20
2019-05-06T21:06:14.427Z,6.87
2019-05-06T21:08:42.161Z,7.37
2019-05-06T21:11:22.605Z,7.73
2019-05-06T21:13:37.242Z,7.60
2019-05-06T21:16:03.512Z,7.10
2019-05-06T21:18:32.323Z,7.37
2019-05-06T21:20:58.760Z,7.00
2019-05-06T21:23:25.155Z,9.20
2019-05-06T21:25:52.346Z,8.10
2019-05-06T21:28:19.300Z,6.40
2019-05-06T21:30:46.663Z,7.70
2019-05-06T21:33:12.970Z,5.77
2019-05-06T21:35:42.362Z,7.33
2019-05-06T21:38:09.012Z,8.27
2019-05-06T21:40:35.382Z,7.77
2019-05-06T21:43:02.418Z,8.30
2019-05-06T21:45:29.226Z,8.53
2019-05-06T21:47:55.551Z,7.83
2019-05-06T21:50:22.775Z,7.00
2019-05-06T21:52:49.655Z,7.00
2019-05-06T21:55:16.459Z,6.33
2019-05-06T21:57:42.723Z,7.27
2019-05-06T22:00:16.645Z,7.43
2019-05-06T22:02:42.938Z,7.00
2019-05-06T22:05:09.787Z,7.90
2019-05-06T22:07:36.958Z,8.10
2019-05-06T22:10:05.150Z,7.93
2019-05-06T22:12:32.195Z,6.97
2019-05-06T22:14:58.699Z,6.67
2019-05-06T22:17:24.967Z,7.93
2019-05-06T22:19:52.414Z,10.73
2019-05-06T22:22:23.313Z,8.13
2019-05-06T22:24:55.255Z,7.83
2019-05-06T22:27:18.521Z,6.83
2019-05-06T22:29:45.573Z,6.93
2019-05-06T22:32:14.821Z,6.40
2019-05-06T22:34:42.514Z,6.43
2019-05-06T22:37:08.847Z,7.07
2019-05-06T22:39:35.365Z,7.83
2019-05-06T22:42:01.843Z,7.03
2019-05-06T22:44:28.210Z,7.23
2019-05-06T22:46:54.499Z,7.67
2019-05-06T22:49:22.584Z,9.80
2019-05-06T22:51:48.959Z,8.43
2019-05-06T22:54:15.583Z,7.90
2019-05-06T22:56:41.875Z,9.40
2019-05-06T22:59:08.242Z,7.20
2019-05-06T23:01:36.556Z,7.57
2019-05-06T23:04:04.032Z,7.57
2019-05-06T23:06:32.730Z,7.87
2019-05-06T23:08:58.699Z,8.27
2019-05-06T23:11:25.006Z,7.23
2019-05-06T23:13:52.996Z,7.17
2019-05-06T23:16:19.934Z,6.40
2019-05-06T23:18:46.207Z,7.00
2019-05-06T23:21:14.679Z,7.63
2019-05-06T23:23:40.771Z,7.87
2019-05-06T23:26:17.443Z,7.03
2019-05-06T23:28:43.847Z,5.97
2019-05-06T23:31:10.298Z,7.47
2019-05-06T23:33:36.584Z,7.70
2019-05-06T23:36:03.164Z,6.23
2019-05-06T23:39:07.439Z,8.17
2019-05-06T23:42:12.115Z,7.97
2019-05-06T23:45:16.095Z,7.13
2019-05-06T23:48:20.358Z,5.73
2019-05-06T23:51:25.498Z,6.80
2019-05-06T23:54:29.363Z,6.67
2019-05-06T23:56:55.467Z,7.63
2019-05-06T23:59:22.557Z,8.33
